Time;durP1;ratioP1;P1;durP2;ratioP2;P2;SDS_P1;SDS_P2;PMS_P1;PMS_P2;Temp;Humidity;BMP_temperature;BMP_pressure;BME280_temperature;BME280_humidity;BME280_pressure;Samples;Min_cycle;Max_cycle;Signal;HPM_P1;HPM_P2
2022/09/04 00:01:28;;;;;;;3.65;0.43;;;16.80;67.40;;;;;;5048906;28;20375;-52
2022/09/04 00:04:04;;;;;;;3.25;0.32;;;16.70;67.70;;;;;;5032856;28;20041;-50
2022/09/04 00:06:54;;;;;;;4.25;0.60;;;16.60;67.80;;;;;;5040382;28;20052;-50
2022/09/04 00:09:38;;;;;;;3.08;0.47;;;16.50;67.90;;;;;;5048480;28;20043;-51
2022/09/04 00:12:07;;;;;;;3.50;0.73;;;16.50;68.30;;;;;;5049657;28;20511;-51
2022/09/04 00:14:49;;;;;;;7.00;0.50;;;16.40;68.20;;;;;;5034926;28;20037;-53
2022/09/04 00:17:21;;;;;;;15.32;1.23;;;16.40;68.60;;;;;;5049503;28;20051;-51
2022/09/04 00:19:55;;;;;;;9.52;0.70;;;16.30;68.80;;;;;;5049333;28;20704;-52
2022/09/04 00:22:35;;;;;;;3.55;0.50;;;16.30;69.20;;;;;;5049785;28;20523;-52
2022/09/04 00:25:07;;;;;;;3.25;0.60;;;16.20;69.90;;;;;;5039706;28;20084;-54
2022/09/04 00:27:43;;;;;;;18.20;1.17;;;16.10;69.30;;;;;;5049738;28;20045;-52
2022/09/04 00:30:18;;;;;;;6.60;0.50;;;16.10;69.50;;;;;;5046815;28;20041;-53
2022/09/04 00:32:50;;;;;;;1.35;0.52;;;16.00;69.80;;;;;;5045711;28;20122;-50
2022/09/04 00:35:22;;;;;;;4.05;0.40;;;15.90;69.90;;;;;;5039990;28;20144;-50
2022/09/04 00:38:12;;;;;;;2.95;0.43;;;15.90;69.90;;;;;;5049602;28;20095;-52
2022/09/04 00:40:43;;;;;;;3.13;0.45;;;15.80;70.30;;;;;;5049893;28;20047;-53
2022/09/04 00:43:31;;;;;;;6.43;0.50;;;15.80;70.30;;;;;;5049186;28;20400;-51
2022/09/04 00:46:05;;;;;;;5.80;0.57;;;15.70;70.80;;;;;;5045384;28;20057;-53
2022/09/04 00:49:02;;;;;;;3.50;0.93;;;15.60;70.80;;;;;;5035151;28;20041;-53
2022/09/04 00:51:46;;;;;;;4.32;0.80;;;15.60;71.20;;;;;;5044250;28;20534;-51
2022/09/04 00:54:37;;;;;;;0.80;0.52;;;15.60;70.80;;;;;;5036034;28;20087;-52
2022/09/04 00:57:18;;;;;;;1.98;0.63;;;15.60;70.90;;;;;;5042690;28;20402;-51
2022/09/04 01:00:12;;;;;;;1.98;0.70;;;15.50;70.70;;;;;;5049652;28;20037;-51
2022/09/04 01:03:02;;;;;;;2.85;0.50;;;15.50;70.70;;;;;;5048351;28;20134;-52
2022/09/04 01:05:51;;;;;;;1.88;0.50;;;15.50;70.70;;;;;;5043678;28;20500;-51
2022/09/04 01:08:45;;;;;;;1.60;0.57;;;15.50;70.80;;;;;;5047932;28;20107;-55
2022/09/04 01:11:42;;;;;;;1.35;0.50;;;15.50;71.10;;;;;;5047264;28;20040;-51
2022/09/04 01:14:46;;;;;;;3.55;0.50;;;15.50;71.30;;;;;;5040358;28;20065;-50
2022/09/04 01:17:28;;;;;;;2.47;0.82;;;15.40;71.30;;;;;;5043377;28;20052;-53
2022/09/04 01:20:12;;;;;;;2.25;0.50;;;15.40;71.30;;;;;;5049332;28;20438;-55
2022/09/04 01:23:10;;;;;;;3.42;0.60;;;15.40;71.30;;;;;;5038806;28;20446;-53
2022/09/04 01:25:57;;;;;;;3.15;0.80;;;15.40;71.40;;;;;;5045233;28;20045;-51
2022/09/04 01:28:49;;;;;;;3.63;0.68;;;15.30;71.60;;;;;;5037276;28;20037;-50
2022/09/04 01:31:47;;;;;;;5.22;1.05;;;15.30;71.60;;;;;;5049923;28;20400;-53
2022/09/04 01:34:21;;;;;;;;;;;15.30;71.60;;;;;;5041154;28;20049;-53
2022/09/04 01:37:09;;;;;;;19.20;1.42;;;15.30;71.60;;;;;;5045558;28;19921;-53
2022/09/04 01:39:37;;;;;;;1.52;0.60;;;15.30;71.40;;;;;;5049216;28;20045;-56
2022/09/04 01:42:16;;;;;;;2.47;0.60;;;15.20;71.40;;;;;;5050819;28;20044;-50
2022/09/04 01:44:42;;;;;;;3.97;0.50;;;15.20;71.60;;;;;;5043184;28;20041;-54
2022/09/04 01:47:24;;;;;;;9.10;0.65;;;15.20;71.60;;;;;;5049025;28;20571;-51
2022/09/04 01:50:08;;;;;;;1.70;0.95;;;15.20;71.70;;;;;;5049509;28;20535;-53
2022/09/04 01:52:49;;;;;;;3.58;0.90;;;15.20;71.90;;;;;;5051700;28;20045;-51
2022/09/04 01:55:36;;;;;;;4.28;0.60;;;15.10;72.00;;;;;;5047143;28;20136;-52
2022/09/04 01:58:10;;;;;;;;;;;15.10;72.30;;;;;;5043532;28;20037;-53
2022/09/04 02:00:44;;;;;;;5.07;0.95;;;15.10;72.40;;;;;;5052289;28;20453;-53
2022/09/04 02:03:38;;;;;;;2.92;0.88;;;15.00;72.10;;;;;;5051008;28;20064;-53
2022/09/04 02:06:32;;;;;;;3.75;0.70;;;15.00;72.30;;;;;;5049329;28;20071;-50
2022/09/04 02:09:25;;;;;;;4.05;0.80;;;15.00;72.40;;;;;;5042567;28;20045;-50
2022/09/04 02:12:04;;;;;;;2.97;0.90;;;15.00;72.70;;;;;;5038065;28;20119;-51
2022/09/04 02:14:44;;;;;;;2.55;0.93;;;14.90;72.70;;;;;;5049881;28;20107;-53
2022/09/04 02:17:20;;;;;;;5.00;0.70;;;14.90;72.90;;;;;;5050342;28;20040;-50
2022/09/04 02:20:06;;;;;;;4.47;0.85;;;14.80;73.10;;;;;;5052103;28;20068;-51
2022/09/04 02:22:48;;;;;;;2.53;0.65;;;14.80;73.30;;;;;;5051194;28;20045;-51
2022/09/04 02:25:39;;;;;;;1.98;0.95;;;14.80;73.40;;;;;;5049905;28;20090;-50
2022/09/04 02:28:18;;;;;;;1.95;0.88;;;14.70;73.70;;;;;;5039149;28;20560;-51
2022/09/04 02:31:08;;;;;;;1.00;0.82;;;14.70;73.60;;;;;;5038370;28;20037;-50
2022/09/04 02:33:38;;;;;;;5.03;0.98;;;14.60;73.90;;;;;;5051115;28;20051;-50
2022/09/04 02:36:11;;;;;;;3.97;0.70;;;14.70;74.20;;;;;;5049764;28;20037;-52
2022/09/04 02:39:00;;;;;;;27.70;1.85;;;14.70;74.20;;;;;;5042500;28;20056;-51
2022/09/04 02:41:49;;;;;;;12.35;1.80;;;14.70;74.70;;;;;;5049054;28;20212;-50
2022/09/04 02:44:36;;;;;;;6.57;1.00;;;14.70;74.60;;;;;;5050849;28;20033;-51
2022/09/04 02:47:29;;;;;;;1.73;0.93;;;14.70;74.60;;;;;;5040509;28;20128;-50
2022/09/04 02:50:13;;;;;;;5.65;0.98;;;14.70;74.60;;;;;;5038240;28;20041;-53
2022/09/04 02:53:08;;;;;;;3.85;1.02;;;14.70;74.60;;;;;;5043197;28;20048;-50
2022/09/04 02:56:08;;;;;;;1.77;0.50;;;14.80;74.50;;;;;;5039059;28;20071;-52
2022/09/04 02:59:02;;;;;;;6.88;1.23;;;14.80;74.80;;;;;;5048738;28;20193;-51
2022/09/04 03:01:40;;;;;;;1.83;1.10;;;14.60;75.50;;;;;;5045572;28;20048;-51
2022/09/04 03:04:48;;;;;;;4.45;1.00;;;14.60;74.90;;;;;;5050704;28;20040;-50
2022/09/04 03:07:32;;;;;;;1.95;0.95;;;14.60;75.20;;;;;;5045101;28;20099;-50
2022/09/04 03:10:08;;;;;;;3.03;0.88;;;14.50;75.00;;;;;;5035482;28;20038;-52
2022/09/04 03:12:51;;;;;;;0.95;0.70;;;14.50;75.20;;;;;;5040436;28;20399;-50
2022/09/04 03:15:28;;;;;;;3.05;1.00;;;14.40;75.60;;;;;;5049214;28;20049;-51
2022/09/04 03:18:22;;;;;;;4.28;1.40;;;14.40;75.30;;;;;;5049007;28;20458;-50
2022/09/04 03:21:03;;;;;;;3.33;0.80;;;14.40;75.80;;;;;;5038849;28;20080;-52
2022/09/04 03:23:42;;;;;;;3.97;0.82;;;14.40;75.60;;;;;;5050372;28;20033;-50
2022/09/04 03:26:42;;;;;;;1.30;0.73;;;14.40;75.60;;;;;;5050816;28;20128;-50
2022/09/04 03:29:20;;;;;;;2.13;0.85;;;14.50;75.60;;;;;;4986508;28;20140;-52
2022/09/04 03:31:57;;;;;;;7.43;1.25;;;14.50;75.70;;;;;;4987611;28;20517;-50
2022/09/04 03:34:51;;;;;;;6.35;0.95;;;14.50;75.80;;;;;;4977081;28;20045;-50
2022/09/04 03:37:48;;;;;;;6.25;0.90;;;14.50;76.10;;;;;;4988593;28;20038;-53
2022/09/04 03:40:32;;;;;;;7.63;1.25;;;14.50;76.00;;;;;;4985296;28;20088;-50
2022/09/04 03:43:06;;;;;;;2.17;0.90;;;14.50;75.90;;;;;;4987904;28;20066;-50
2022/09/04 03:45:52;;;;;;;1.77;1.08;;;14.40;76.00;;;;;;4988656;28;20050;-51
2022/09/04 03:48:38;;;;;;;3.13;0.80;;;14.40;76.20;;;;;;4983502;28;20061;-50
2022/09/04 03:51:10;;;;;;;5.30;0.95;;;14.30;76.30;;;;;;4983067;28;20145;-51
2022/09/04 03:53:55;;;;;;;3.67;0.98;;;14.20;76.90;;;;;;4987181;28;20054;-50
2022/09/04 03:56:35;;;;;;;4.75;1.20;;;14.20;77.00;;;;;;4971902;28;20116;-50
2022/09/04 03:59:28;;;;;;;2.38;1.02;;;14.10;76.80;;;;;;4970822;28;20049;-50
2022/09/04 04:02:08;;;;;;;8.00;1.13;;;14.10;77.00;;;;;;4967158;28;20046;-53
2022/09/04 04:04:43;;;;;;;25.55;2.10;;;14.10;77.20;;;;;;5000647;28;20049;-53
2022/09/04 04:07:21;;;;;;;19.02;1.80;;;14.00;77.20;;;;;;5038588;28;20041;-50
2022/09/04 04:10:02;;;;;;;2.05;0.77;;;14.00;77.50;;;;;;5048697;28;20407;-52
2022/09/04 04:13:09;;;;;;;6.03;1.33;;;13.90;77.80;;;;;;5049636;28;20522;-54
2022/09/04 04:16:12;;;;;;;2.17;1.17;;;13.80;77.80;;;;;;5046248;28;20438;-51
2022/09/04 04:19:09;;;;;;;3.67;1.35;;;13.80;78.10;;;;;;5049309;28;20094;-52
2022/09/04 04:21:53;;;;;;;3.35;1.40;;;13.60;78.10;;;;;;5041761;28;20097;-54
2022/09/04 04:24:38;;;;;;;1.63;1.13;;;13.60;78.40;;;;;;5049091;28;20037;-54
2022/09/04 04:27:41;;;;;;;2.25;1.33;;;13.60;78.70;;;;;;5037633;28;20034;-54
2022/09/04 04:30:17;;;;;;;2.78;1.42;;;13.50;78.90;;;;;;5048176;28;20037;-52
2022/09/04 04:32:50;;;;;;;2.25;0.93;;;13.40;78.90;;;;;;5050023;28;20036;-54
2022/09/04 04:35:26;;;;;;;3.42;1.52;;;13.30;79.10;;;;;;5042002;28;20077;-54
2022/09/04 04:38:11;;;;;;;2.72;1.23;;;13.20;79.40;;;;;;5047613;28;20047;-53
2022/09/04 04:41:01;;;;;;;3.95;1.42;;;13.20;79.90;;;;;;5035742;28;20047;-54
2022/09/04 04:43:54;;;;;;;8.40;1.95;;;13.30;80.10;;;;;;5034299;28;20029;-54
2022/09/04 04:47:02;;;;;;;2.67;1.35;;;13.30;80.60;;;;;;5048162;28;20071;-55
2022/09/04 04:49:59;;;;;;;6.15;1.83;;;13.40;80.20;;;;;;5019113;28;20053;-54
2022/09/04 04:52:48;;;;;;;4.13;1.55;;;13.40;80.10;;;;;;5042044;28;20589;-50
2022/09/04 04:55:58;;;;;;;5.22;1.58;;;13.40;80.30;;;;;;5047139;28;20045;-52
2022/09/04 04:58:59;;;;;;;2.88;1.35;;;13.40;80.50;;;;;;5045781;28;20497;-51
2022/09/04 05:01:42;;;;;;;5.82;1.30;;;13.40;80.60;;;;;;5047952;28;20116;-54
2022/09/04 05:04:08;;;;;;;3.60;2.35;;;13.40;80.70;;;;;;5044424;28;20044;-53
2022/09/04 05:06:55;;;;;;;3.13;1.73;;;13.40;80.60;;;;;;5041848;28;20032;-54
2022/09/04 05:09:27;;;;;;;3.03;2.05;;;13.50;81.00;;;;;;5050453;28;20044;-54
2022/09/04 05:12:23;;;;;;;4.60;1.80;;;13.50;80.90;;;;;;5050547;28;20502;-53
2022/09/04 05:15:14;;;;;;;3.80;1.88;;;13.50;81.20;;;;;;5052432;28;20045;-54
2022/09/04 05:17:51;;;;;;;2.50;1.30;;;13.60;81.70;;;;;;5040276;28;20143;-55
2022/09/04 05:20:23;;;;;;;;;;;13.50;81.50;;;;;;5048251;28;20111;-52
2022/09/04 05:23:24;;;;;;;4.97;1.67;;;13.50;81.70;;;;;;5043826;28;19924;-54
2022/09/04 05:26:00;;;;;;;5.78;1.90;;;13.50;81.70;;;;;;5049647;28;20033;-56
2022/09/04 05:28:59;;;;;;;2.27;1.50;;;13.60;81.80;;;;;;5042766;28;20380;-54
2022/09/04 05:31:55;;;;;;;2.22;1.90;;;13.60;82.40;;;;;;5039267;28;20069;-52
2022/09/04 05:34:56;;;;;;;6.07;2.13;;;13.60;82.40;;;;;;5052450;28;20029;-52
2022/09/04 05:37:45;;;;;;;9.10;2.25;;;13.70;82.30;;;;;;5041345;28;20033;-52
2022/09/04 05:40:42;;;;;;;3.65;2.00;;;13.80;82.90;;;;;;5050839;28;20049;-54
2022/09/04 05:43:26;;;;;;;2.53;1.92;;;13.90;83.10;;;;;;5038820;28;20543;-53
2022/09/04 05:46:04;;;;;;;5.70;1.95;;;13.90;83.50;;;;;;5045207;28;20499;-52
2022/09/04 05:48:44;;;;;;;7.57;1.95;;;14.00;83.40;;;;;;5044432;28;20124;-56
2022/09/04 05:51:28;;;;;;;3.55;1.90;;;14.10;83.60;;;;;;5049916;28;20041;-53
2022/09/04 05:54:06;;;;;;;7.18;2.35;;;14.20;83.50;;;;;;5047556;28;20068;-53
2022/09/04 05:56:47;;;;;;;5.43;1.48;;;14.30;83.40;;;;;;5059433;28;20041;-54
2022/09/04 05:59:40;;;;;;;61.45;5.63;;;14.50;82.90;;;;;;5044988;28;20439;-57
2022/09/04 06:02:42;;;;;;;4.15;1.60;;;14.60;82.40;;;;;;5049130;28;20040;-53
2022/09/04 06:05:12;;;;;;;5.00;2.30;;;14.70;81.90;;;;;;5041709;28;20045;-53
2022/09/04 06:08:05;;;;;;;80.93;6.15;;;14.80;81.70;;;;;;5036246;28;21156;-52
2022/09/04 06:10:46;;;;;;;3.03;2.08;;;14.90;81.80;;;;;;5038416;28;20072;-54
2022/09/04 06:13:45;;;;;;;4.95;2.10;;;15.00;81.40;;;;;;5052154;28;20040;-52
2022/09/04 06:16:36;;;;;;;5.68;1.70;;;15.10;81.20;;;;;;5039949;28;20052;-54
2022/09/04 06:19:28;;;;;;;3.80;1.75;;;15.20;81.40;;;;;;5052859;28;20045;-55
2022/09/04 06:22:12;;;;;;;3.40;2.03;;;15.30;81.00;;;;;;5038754;28;20037;-55
2022/09/04 06:24:56;;;;;;;3.72;1.85;;;15.40;80.60;;;;;;5039663;28;20083;-53
2022/09/04 06:27:39;;;;;;;3.35;2.20;;;15.50;80.90;;;;;;5051844;28;20057;-56
2022/09/04 06:30:12;;;;;;;8.15;2.67;;;15.50;80.30;;;;;;5051507;28;20048;-53
2022/09/04 06:33:04;;;;;;;5.15;1.98;;;15.60;80.30;;;;;;5049735;28;20399;-53
2022/09/04 06:35:47;;;;;;;8.20;2.50;;;15.80;80.40;;;;;;5043600;28;20049;-53
2022/09/04 06:38:43;;;;;;;2.55;1.75;;;15.90;80.00;;;;;;5040024;28;20041;-53
2022/09/04 06:41:29;;;;;;;1.98;1.27;;;15.90;79.70;;;;;;5051521;28;20033;-54
2022/09/04 06:44:07;;;;;;;10.70;2.72;;;16.00;79.70;;;;;;5044511;28;20060;-54
2022/09/04 06:46:41;;;;;;;4.07;1.52;;;16.10;79.90;;;;;;5051188;28;20109;-55
2022/09/04 06:49:28;;;;;;;2.60;1.45;;;16.20;80.00;;;;;;5051053;28;20072;-53
2022/09/04 06:52:31;;;;;;;3.85;1.50;;;16.30;79.40;;;;;;5049027;28;20036;-53
2022/09/04 06:55:05;;;;;;;2.63;1.80;;;16.40;79.10;;;;;;5041360;28;20861;-53
2022/09/04 06:58:05;;;;;;;2.50;1.45;;;16.50;78.70;;;;;;5039449;28;20037;-52
2022/09/04 07:00:57;;;;;;;4.80;1.88;;;16.60;78.70;;;;;;5034519;28;20037;-54
2022/09/04 07:03:37;;;;;;;11.93;2.47;;;16.70;79.00;;;;;;5045436;28;20108;-51
2022/09/04 07:06:05;;;;;;;2.65;1.67;;;16.80;78.90;;;;;;5051232;28;20120;-54
2022/09/04 07:08:31;;;;;;;32.63;2.22;;;16.90;78.40;;;;;;5049086;28;20057;-51
2022/09/04 07:11:02;;;;;;;10.95;1.67;;;17.00;78.50;;;;;;5049201;28;20041;-54
2022/09/04 07:14:15;;;;;;;2.88;1.95;;;17.10;78.30;;;;;;5046980;28;20060;-54
2022/09/04 07:17:04;;;;;;;6.72;1.00;;;17.20;78.50;;;;;;5050743;28;20041;-53
2022/09/04 07:19:42;;;;;;;3.85;1.50;;;17.30;78.10;;;;;;5045193;28;20060;-51
2022/09/04 07:22:45;;;;;;;5.05;1.17;;;17.50;78.00;;;;;;5044856;28;20107;-51
2022/09/04 07:25:45;;;;;;;5.75;1.95;;;17.50;77.70;;;;;;5044487;28;20499;-55
2022/09/04 07:28:39;;;;;;;4.93;1.23;;;17.70;77.10;;;;;;5029126;28;20049;-54
2022/09/04 07:31:25;;;;;;;9.85;1.92;;;17.80;77.40;;;;;;5048039;28;20037;-51
2022/09/04 07:34:09;;;;;;;3.55;1.30;;;17.90;77.40;;;;;;5038991;28;20034;-52
2022/09/04 07:36:54;;;;;;;11.15;1.45;;;18.00;76.60;;;;;;5050715;28;20514;-51
2022/09/04 07:39:33;;;;;;;16.77;2.15;;;18.10;77.00;;;;;;5043322;28;20029;-51
2022/09/04 07:42:16;;;;;;;8.57;1.63;;;18.30;76.70;;;;;;5048181;28;20043;-51
2022/09/04 07:44:57;;;;;;;2.80;1.27;;;18.40;76.70;;;;;;5037636;28;20040;-53
2022/09/04 07:47:43;;;;;;;6.75;1.63;;;18.50;76.10;;;;;;5050056;28;20445;-52
2022/09/04 07:50:49;;;;;;;6.90;1.70;;;18.60;75.80;;;;;;5048359;28;20033;-56
2022/09/04 07:53:18;;;;;;;5.88;2.08;;;18.70;75.90;;;;;;5034331;28;20029;-52
2022/09/04 07:55:48;;;;;;;2.65;1.58;;;18.80;76.00;;;;;;5039220;28;20077;-52
2022/09/04 07:58:51;;;;;;;2.25;1.00;;;18.80;75.50;;;;;;5048655;28;20040;-55
2022/09/04 08:01:41;;;;;;;3.88;1.90;;;19.00;75.80;;;;;;5046126;28;20166;-55
2022/09/04 08:04:31;;;;;;;2.85;1.38;;;19.10;75.70;;;;;;5046845;28;20167;-56
2022/09/04 08:07:04;;;;;;;4.60;1.50;;;19.20;75.20;;;;;;5036864;28;20091;-54
2022/09/04 08:09:56;;;;;;;2.13;1.35;;;19.30;74.90;;;;;;5044990;28;20067;-53
2022/09/04 08:12:41;;;;;;;4.63;1.80;;;19.40;74.90;;;;;;5048659;28;20044;-52
2022/09/04 08:15:10;;;;;;;12.20;1.38;;;19.50;74.80;;;;;;5040815;28;20052;-58
2022/09/04 08:18:06;;;;;;;4.63;1.65;;;19.60;74.80;;;;;;5049760;28;20037;-52
2022/09/04 08:20:58;;;;;;;2.83;1.38;;;19.70;74.20;;;;;;5046260;28;20056;-55
2022/09/04 08:23:54;;;;;;;4.45;1.20;;;19.80;74.30;;;;;;5049268;28;20048;-53
2022/09/04 08:26:48;;;;;;;2.05;1.05;;;19.90;74.30;;;;;;5046675;28;20414;-55
2022/09/04 08:29:39;;;;;;;5.65;1.38;;;20.00;74.00;;;;;;5045471;28;20060;-54
2022/09/04 08:32:38;;;;;;;4.30;1.45;;;20.10;74.10;;;;;;5043345;28;20036;-54
2022/09/04 08:35:20;;;;;;;3.03;1.27;;;20.20;74.20;;;;;;5046955;28;20075;-53
2022/09/04 08:38:14;;;;;;;2.47;1.20;;;20.30;73.80;;;;;;5047788;28;20523;-55
2022/09/04 08:41:07;;;;;;;3.72;1.80;;;20.40;73.50;;;;;;5051409;28;20048;-58
2022/09/04 08:44:02;;;;;;;3.85;1.00;;;20.50;73.70;;;;;;5038703;28;20044;-59
2022/09/04 08:47:00;;;;;;;1.63;1.23;;;20.60;73.50;;;;;;5045139;28;20049;-57
2022/09/04 08:50:04;;;;;;;5.47;1.60;;;20.80;73.10;;;;;;5051199;28;20040;-55
2022/09/04 08:52:59;;;;;;;2.03;1.10;;;20.80;73.10;;;;;;5049850;28;20123;-55
2022/09/04 08:55:54;;;;;;;2.85;1.00;;;20.90;72.60;;;;;;5046550;28;20033;-53
2022/09/04 08:59:01;;;;;;;2.78;1.50;;;21.00;72.20;;;;;;5050548;28;20083;-55
2022/09/04 09:01:42;;;;;;;4.30;1.40;;;21.20;72.50;;;;;;5036972;28;20025;-56
2022/09/04 09:04:26;;;;;;;3.58;1.73;;;21.20;72.50;;;;;;5029394;28;20060;-55
2022/09/04 09:07:26;;;;;;;4.03;0.80;;;21.40;72.40;;;;;;5052711;28;20257;-53
2022/09/04 09:10:22;;;;;;;8.50;1.65;;;21.50;72.60;;;;;;5052807;28;20033;-54
2022/09/04 09:13:08;;;;;;;3.83;1.25;;;21.60;71.90;;;;;;5052264;28;20095;-56
2022/09/04 09:15:40;;;;;;;4.85;1.70;;;21.70;71.70;;;;;;5053092;28;20107;-56
2022/09/04 09:18:50;;;;;;;1.83;1.20;;;21.80;72.70;;;;;;5050814;28;20083;-55
2022/09/04 09:21:46;;;;;;;4.20;1.02;;;21.90;71.60;;;;;;5032592;28;20041;-52
2022/09/04 09:24:40;;;;;;;3.50;1.15;;;22.00;71.20;;;;;;5046107;28;20041;-53
2022/09/04 09:27:24;;;;;;;5.40;1.20;;;22.10;71.30;;;;;;5052744;28;20449;-56
2022/09/04 09:30:11;;;;;;;6.32;1.10;;;22.20;71.50;;;;;;5033492;28;20045;-51
2022/09/04 09:33:15;;;;;;;2.78;0.60;;;22.30;71.00;;;;;;5037573;28;20037;-54
2022/09/04 09:36:20;;;;;;;4.65;1.30;;;22.40;70.70;;;;;;5050062;28;20049;-51
2022/09/04 09:38:59;;;;;;;4.72;0.98;;;22.50;70.00;;;;;;5049272;28;20548;-53
2022/09/04 09:41:50;;;;;;;8.40;0.90;;;22.60;70.30;;;;;;5048460;28;20067;-50
2022/09/04 09:44:44;;;;;;;7.85;0.90;;;22.70;69.80;;;;;;5048867;28;20052;-50
2022/09/04 09:47:52;;;;;;;3.50;0.68;;;22.80;69.90;;;;;;5052725;28;20091;-50
2022/09/04 09:50:55;;;;;;;2.35;0.80;;;22.90;69.80;;;;;;5028915;28;20534;-54
2022/09/04 09:53:49;;;;;;;3.42;0.82;;;22.90;69.70;;;;;;5040339;28;20037;-49
2022/09/04 09:56:54;;;;;;;6.00;0.93;;;23.10;69.70;;;;;;5040081;28;20053;-50
2022/09/04 10:00:04;;;;;;;7.05;0.77;;;23.20;70.10;;;;;;5046072;28;20040;-50
2022/09/04 10:02:38;;;;;;;6.03;0.98;;;23.40;69.40;;;;;;5046816;28;20075;-52
2022/09/04 10:05:28;;;;;;;4.95;0.60;;;23.50;69.30;;;;;;5049294;28;20123;-54
2022/09/04 10:08:26;;;;;;;6.82;0.88;;;23.50;69.50;;;;;;5052307;28;20040;-53
2022/09/04 10:11:22;;;;;;;2.50;0.90;;;23.70;68.90;;;;;;5040805;28;20516;-52
2022/09/04 10:14:15;;;;;;;2.27;0.60;;;23.70;68.70;;;;;;5049883;28;20432;-55
2022/09/04 10:16:59;;;;;;;4.65;0.70;;;23.80;69.20;;;;;;5050240;28;20045;-55
2022/09/04 10:19:41;;;;;;;210.88;16.23;;;23.90;68.70;;;;;;5048833;28;20035;-53
2022/09/04 10:22:37;;;;;;;15.05;1.85;;;24.00;68.20;;;;;;5034508;28;20385;-53
2022/09/04 10:25:18;;;;;;;2.97;0.70;;;24.10;67.60;;;;;;5046180;28;20116;-50
2022/09/04 10:28:01;;;;;;;4.47;0.75;;;24.20;68.10;;;;;;5046933;28;20037;-50
2022/09/04 10:30:56;;;;;;;3.78;0.63;;;24.30;68.60;;;;;;5046060;28;20053;-52
2022/09/04 10:33:50;;;;;;;6.30;0.65;;;24.30;67.90;;;;;;5036678;28;20045;-50
2022/09/04 10:36:49;;;;;;;3.28;0.75;;;24.40;67.50;;;;;;5037604;28;20083;-50
2022/09/04 10:42:43;;;;;;;2.95;0.80;;;24.40;68.00;;;;;;5042398;28;20037;-52
2022/09/04 10:45:16;;;;;;;1.50;0.75;;;24.50;67.40;;;;;;5033138;28;20053;-51
2022/09/04 10:48:14;;;;;;;4.05;0.80;;;24.60;67.70;;;;;;5035862;28;20554;-55
2022/09/04 10:51:07;;;;;;;1.58;0.70;;;24.70;67.20;;;;;;5039075;28;20426;-51
2022/09/04 10:53:51;;;;;;;3.45;0.82;;;24.70;67.20;;;;;;5040364;28;20041;-55
2022/09/04 10:56:29;;;;;;;6.97;1.15;;;24.90;67.20;;;;;;5049770;28;20638;-55
2022/09/04 10:58:57;;;;;;;5.43;0.80;;;25.00;67.20;;;;;;5051210;28;20116;-54
2022/09/04 11:02:08;;;;;;;3.00;0.82;;;25.10;67.60;;;;;;5036714;28;20126;-55
2022/09/04 11:05:01;;;;;;;8.50;0.60;;;25.20;67.10;;;;;;5008685;28;20056;-56
2022/09/04 11:07:59;;;;;;;1.88;0.60;;;25.20;67.00;;;;;;5046632;28;20346;-54
2022/09/04 11:10:58;;;;;;;35.10;3.15;;;25.30;66.70;;;;;;5048357;28;20495;-52
2022/09/04 11:13:45;;;;;;;10.75;1.05;;;25.40;66.70;;;;;;5044025;28;20042;-55
2022/09/04 11:16:49;;;;;;;12.10;0.95;;;25.40;67.20;;;;;;5036683;28;20045;-52
2022/09/04 11:19:33;;;;;;;3.53;0.77;;;25.50;66.40;;;;;;5035822;28;20040;-51
2022/09/04 11:22:35;;;;;;;1.88;0.77;;;25.50;66.00;;;;;;5048517;28;20037;-54
2022/09/04 11:25:23;;;;;;;7.32;0.82;;;25.50;66.30;;;;;;5046876;28;20128;-51
2022/09/04 11:28:12;;;;;;;3.38;0.50;;;25.60;66.30;;;;;;5049200;28;20037;-52
2022/09/04 11:31:19;;;;;;;1.02;0.50;;;25.70;66.30;;;;;;5034294;28;20045;-51
2022/09/04 11:34:16;;;;;;;2.47;0.70;;;25.80;65.90;;;;;;5045118;28;20492;-57
2022/09/04 11:37:15;;;;;;;2.67;0.40;;;25.80;66.40;;;;;;5038268;28;20052;-52
2022/09/04 11:40:15;;;;;;;0.80;0.60;;;25.90;65.50;;;;;;5049929;28;20041;-55
2022/09/04 11:43:22;;;;;;;1.38;0.50;;;26.00;65.90;;;;;;5000758;28;20052;-56
2022/09/04 11:46:13;;;;;;;6.30;0.80;;;26.10;65.30;;;;;;5039931;28;20499;-52
2022/09/04 11:48:57;;;;;;;9.10;0.60;;;26.10;65.60;;;;;;5036636;28;20060;-52
2022/09/04 11:52:02;;;;;;;2.65;0.70;;;26.20;65.50;;;;;;5030630;28;20767;-52
2022/09/04 11:54:43;;;;;;;1.73;0.60;;;26.40;65.80;;;;;;5033548;28;20072;-54
2022/09/04 11:57:27;;;;;;;1.77;0.40;;;26.50;65.00;;;;;;5038931;28;20503;-55
2022/09/04 12:00:15;;;;;;;9.35;0.88;;;26.60;65.10;;;;;;5024788;28;20048;-53
2022/09/04 12:03:25;;;;;;;1.95;0.60;;;26.60;64.80;;;;;;5034766;28;20037;-55
2022/09/04 12:06:14;;;;;;;2.67;0.40;;;26.60;64.30;;;;;;5042589;28;20040;-52
2022/09/04 12:08:49;;;;;;;2.22;0.43;;;26.70;64.30;;;;;;5034080;28;20565;-55
2022/09/04 12:11:47;;;;;;;3.17;0.40;;;26.70;64.70;;;;;;5051427;28;20045;-54
2022/09/04 12:14:39;;;;;;;1.85;0.30;;;26.70;64.80;;;;;;5047619;28;20052;-52
2022/09/04 12:17:31;;;;;;;1.25;0.32;;;26.80;64.30;;;;;;5034484;28;20057;-52
2022/09/04 12:20:30;;;;;;;5.13;0.70;;;26.80;64.00;;;;;;5048462;28;20053;-55
2022/09/04 12:23:02;;;;;;;1.75;0.40;;;26.90;64.10;;;;;;5047927;28;20091;-52
2022/09/04 12:25:56;;;;;;;2.97;0.70;;;26.90;64.40;;;;;;5049414;28;20045;-52
2022/09/04 12:28:43;;;;;;;1.50;0.32;;;26.90;64.40;;;;;;5044546;28;20458;-53
2022/09/04 12:31:33;;;;;;;3.53;0.80;;;26.90;64.10;;;;;;5035709;28;20040;-54
2022/09/04 12:34:57;;;;;;;1.73;0.50;;;26.90;64.10;;;;;;5040585;28;20099;-53
2022/09/04 12:37:53;;;;;;;1.50;0.52;;;27.00;64.50;;;;;;4979666;28;20062;-53
2022/09/04 12:40:28;;;;;;;2.63;0.60;;;27.00;63.50;;;;;;4969697;28;20074;-54
2022/09/04 12:43:27;;;;;;;1.73;0.70;;;27.10;63.80;;;;;;5028263;28;20048;-54
2022/09/04 12:46:18;;;;;;;3.33;0.68;;;27.10;64.00;;;;;;5046639;28;20041;-55
2022/09/04 12:49:04;;;;;;;0.50;0.40;;;27.30;63.80;;;;;;5040869;28;20033;-53
2022/09/04 12:51:59;;;;;;;2.30;0.50;;;27.40;64.10;;;;;;5049476;28;20112;-56
2022/09/04 12:54:57;;;;;;;1.45;0.70;;;27.40;63.30;;;;;;5048514;28;20038;-53
2022/09/04 12:57:41;;;;;;;1.52;0.60;;;27.50;63.80;;;;;;5036628;28;20115;-55
2022/09/04 13:00:11;;;;;;;3.38;0.85;;;27.50;63.50;;;;;;5046521;28;20037;-52
2022/09/04 13:03:05;;;;;;;10.45;0.60;;;27.40;63.30;;;;;;5049706;28;20200;-54
2022/09/04 13:06:02;;;;;;;1.45;0.50;;;27.50;63.60;;;;;;5040423;28;20050;-53
2022/09/04 13:08:53;;;;;;;3.95;0.60;;;27.60;63.80;;;;;;5029933;28;20049;-52
2022/09/04 13:11:21;;;;;;;1.40;0.70;;;27.70;62.70;;;;;;5030663;28;20175;-57
2022/09/04 13:14:15;;;;;;;3.45;0.55;;;27.70;63.40;;;;;;5027869;28;20272;-57
2022/09/04 13:16:48;;;;;;;2.15;0.50;;;27.70;62.40;;;;;;5029501;28;20076;-57
2022/09/04 13:19:38;;;;;;;3.22;0.60;;;27.70;63.20;;;;;;5029830;28;20042;-58
2022/09/04 13:22:38;;;;;;;2.55;0.40;;;27.70;63.20;;;;;;5030158;28;20538;-58
2022/09/04 13:25:34;;;;;;;1.70;0.50;;;27.60;62.80;;;;;;5029717;28;20121;-57
2022/09/04 13:28:18;;;;;;;0.68;0.40;;;27.50;62.20;;;;;;5048463;28;20108;-56
2022/09/04 13:31:12;;;;;;;5.50;0.98;;;27.50;62.70;;;;;;5032942;28;20033;-57
2022/09/04 13:33:41;;;;;;;11.50;0.70;;;27.50;62.20;;;;;;5002883;28;20057;-60
2022/09/04 13:36:15;;;;;;;1.02;0.40;;;27.50;62.60;;;;;;5033104;28;20076;-60
2022/09/04 13:38:46;;;;;;;2.25;0.40;;;27.50;62.40;;;;;;5038737;28;20123;-59
2022/09/04 13:41:43;;;;;;;0.95;0.50;;;27.60;62.20;;;;;;5040411;28;20037;-60
2022/09/04 13:44:17;;;;;;;1.85;0.60;;;27.60;62.30;;;;;;5032363;28;20053;-60
2022/09/04 13:46:46;;;;;;;2.10;0.40;;;27.60;62.30;;;;;;5044226;28;20052;-61
2022/09/04 13:49:21;;;;;;;2.65;0.43;;;27.70;62.60;;;;;;5040059;28;20423;-61
2022/09/04 13:51:53;;;;;;;0.85;0.40;;;27.70;62.60;;;;;;5039662;28;20167;-60
2022/09/04 13:54:31;;;;;;;1.52;0.60;;;27.70;62.40;;;;;;5043885;28;20073;-62
2022/09/04 13:57:19;;;;;;;0.63;0.40;;;27.80;61.80;;;;;;5043177;28;20295;-61
2022/09/04 13:59:48;;;;;;;4.80;0.60;;;27.80;61.60;;;;;;5051184;28;20052;-60
2022/09/04 14:02:15;;;;;;;2.33;0.50;;;27.80;62.20;;;;;;5050134;28;20384;-61
2022/09/04 14:04:49;;;;;;;1.52;0.50;;;27.80;61.90;;;;;;5048962;28;20124;-61
2022/09/04 14:07:25;;;;;;;2.90;0.50;;;27.80;61.50;;;;;;5041448;28;20037;-61
2022/09/04 14:09:55;;;;;;;1.60;0.70;;;27.90;61.40;;;;;;5033766;28;20067;-60
2022/09/04 14:13:02;;;;;;;4.47;0.63;;;28.00;61.60;;;;;;5039423;28;20041;-61
2022/09/04 14:15:46;;;;;;;1.15;0.50;;;28.00;61.30;;;;;;5029215;28;20053;-60
2022/09/04 14:18:31;;;;;;;2.33;0.40;;;27.90;61.50;;;;;;5042703;28;20238;-60
2022/09/04 14:21:13;;;;;;;2.35;0.55;;;27.90;61.20;;;;;;5045724;28;20116;-60
2022/09/04 14:24:05;;;;;;;1.73;0.63;;;27.90;61.60;;;;;;5051168;28;20071;-60
2022/09/04 14:26:44;;;;;;;1.67;0.60;;;27.80;61.70;;;;;;5039244;28;20060;-60
2022/09/04 14:29:34;;;;;;;0.95;0.50;;;27.80;62.20;;;;;;5040633;28;20036;-59
2022/09/04 14:32:03;;;;;;;1.52;0.55;;;27.70;61.40;;;;;;5032798;28;20046;-60
2022/09/04 14:34:55;;;;;;;1.30;0.52;;;27.70;61.40;;;;;;5040030;28;20040;-60